createdAt,value
2022-12-08T06:42:32.603Z,174.88
2022-12-08T06:45:01.375Z,184.77
2022-12-08T06:47:32.237Z,181.05
2022-12-08T06:49:59.912Z,165.23
2022-12-08T06:52:27.636Z,168.00
2022-12-08T06:54:59.710Z,174.48
2022-12-08T06:57:27.547Z,159.18
2022-12-08T07:00:01.303Z,161.07
2022-12-08T07:02:29.711Z,162.32
2022-12-08T07:04:58.495Z,147.40
2022-12-08T07:07:26.131Z,140.40
2022-12-08T07:09:54.098Z,163.27
2022-12-08T07:12:23.147Z,145.65
2022-12-08T07:14:50.718Z,158.30
2022-12-08T07:17:18.583Z,156.88
2022-12-08T07:19:46.191Z,163.02
2022-12-08T07:22:13.764Z,152.95
2022-12-08T07:24:41.636Z,145.20
2022-12-08T07:27:11.435Z,146.55
2022-12-08T07:29:40.444Z,130.70
2022-12-08T07:32:08.238Z,144.88
2022-12-08T07:34:37.594Z,130.40
2022-12-08T07:37:05.167Z,139.43
2022-12-08T07:39:33.074Z,135.18
2022-12-08T07:42:03.683Z,135.90
2022-12-08T07:58:37.127Z,135.18
2022-12-08T08:01:05.383Z,118.00
2022-12-08T08:03:33.735Z,125.60
2022-12-08T08:06:08.748Z,121.00
2022-12-08T08:08:39.306Z,123.80
2022-12-08T08:11:18.961Z,134.45
2022-12-08T08:13:50.630Z,118.10
2022-12-08T08:16:25.053Z,124.45
2022-12-08T08:18:55.885Z,127.90
2022-12-08T08:24:11.839Z,117.43
2022-12-08T08:26:41.829Z,136.75
2022-12-08T08:29:12.251Z,135.20
2022-12-08T08:31:40.071Z,139.65
2022-12-08T08:34:07.866Z,139.60
2022-12-08T08:36:35.989Z,142.27
2022-12-08T08:39:04.133Z,139.77
2022-12-08T08:41:32.181Z,145.00
2022-12-08T08:43:59.883Z,139.10
2022-12-08T08:46:29.256Z,161.23
2022-12-08T08:49:00.502Z,147.88
2022-12-08T08:51:28.252Z,157.70
2022-12-08T08:53:56.647Z,147.68
2022-12-08T08:56:24.640Z,156.95
2022-12-08T08:58:53.674Z,165.50
2022-12-08T09:01:23.386Z,145.15
2022-12-08T09:06:31.390Z,139.93
2022-12-08T09:08:59.517Z,151.00
2022-12-08T09:11:27.315Z,158.52
2022-12-08T09:13:58.513Z,170.50
2022-12-08T09:16:26.565Z,160.05
2022-12-08T09:18:59.033Z,151.95
2022-12-08T09:21:26.970Z,144.40
2022-12-08T09:24:00.199Z,137.18
2022-12-08T09:26:29.168Z,144.40
2022-12-08T09:28:59.267Z,144.85
2022-12-08T09:31:27.059Z,124.93
2022-12-08T09:33:56.218Z,116.55
2022-12-08T09:36:23.891Z,120.57
2022-12-08T09:38:51.611Z,120.55
2022-12-08T09:41:35.735Z,123.95
2022-12-08T09:44:38.147Z,106.60
2022-12-08T09:47:13.968Z,111.50
2022-12-08T09:49:53.150Z,115.93
2022-12-08T09:52:29.323Z,120.15
2022-12-08T09:55:00.458Z,121.60
2022-12-08T09:57:28.505Z,99.87
2022-12-08T10:00:01.476Z,114.32
2022-12-08T10:02:30.469Z,100.75
2022-12-08T10:05:01.068Z,110.35
2022-12-08T10:07:39.234Z,101.20
2022-12-08T10:10:22.447Z,94.55
2022-12-08T10:12:55.132Z,93.68
2022-12-08T10:15:43.959Z,87.28
2022-12-08T10:18:16.205Z,83.88
2022-12-08T10:20:49.471Z,78.30
2022-12-08T10:23:26.093Z,80.20
2022-12-08T10:26:03.370Z,79.63
2022-12-08T10:28:33.361Z,88.50
2022-12-08T10:31:01.046Z,80.70
2022-12-08T10:33:35.542Z,75.53
2022-12-08T10:36:05.150Z,76.47
2022-12-08T10:38:37.142Z,72.70
2022-12-08T10:41:11.507Z,81.70
2022-12-08T10:43:48.087Z,76.57
2022-12-08T10:46:18.909Z,84.18
2022-12-08T10:48:54.189Z,78.33
2022-12-08T10:51:30.085Z,76.07
2022-12-08T10:53:59.483Z,76.88
2022-12-08T10:56:28.622Z,103.45
2022-12-08T11:01:37.315Z,65.03
2022-12-08T11:04:11.843Z,65.07
2022-12-08T11:06:44.451Z,68.88
2022-12-08T11:09:39.861Z,66.28
2022-12-08T11:12:09.678Z,61.53
2022-12-08T11:14:49.447Z,57.40
2022-12-08T11:17:23.754Z,71.97
2022-12-08T11:19:59.592Z,72.35
2022-12-08T11:22:32.103Z,74.43
2022-12-08T11:25:20.729Z,70.80
2022-12-08T11:27:50.499Z,65.40
2022-12-08T11:30:21.403Z,66.25
2022-12-08T11:32:52.997Z,69.25
2022-12-08T11:35:27.145Z,69.38
2022-12-08T11:38:19.853Z,63.75
2022-12-08T11:44:24.467Z,71.53
2022-12-08T11:46:55.039Z,58.80
2022-12-08T11:49:31.467Z,91.75
2022-12-08T11:52:05.269Z,99.78
2022-12-08T11:54:42.083Z,101.05
2022-12-08T11:57:14.302Z,122.63
2022-12-08T11:59:49.134Z,111.57
2022-12-08T12:02:25.880Z,111.88
2022-12-08T12:05:01.086Z,111.85
2022-12-08T12:07:57.419Z,116.68
2022-12-08T12:10:54.515Z,112.55
2022-12-08T12:13:48.052Z,136.65
2022-12-08T12:16:48.383Z,117.82
2022-12-08T14:55:49.427Z,131.48
2022-12-08T14:58:26.406Z,132.40
2022-12-08T15:00:56.857Z,93.55
2022-12-08T15:03:26.895Z,96.40
2022-12-08T15:05:58.342Z,107.50
2022-12-08T15:08:26.455Z,92.25
2022-12-08T15:11:26.349Z,99.43
2022-12-08T15:13:54.295Z,103.88
2022-12-08T15:16:33.723Z,98.05
2022-12-08T15:19:05.744Z,81.65
2022-12-08T15:21:38.067Z,86.93
2022-12-08T15:26:48.080Z,81.90
2022-12-08T15:29:21.676Z,75.03
2022-12-08T15:31:52.217Z,77.55
2022-12-08T15:34:20.595Z,70.53
2022-12-08T15:36:52.635Z,77.55
2022-12-08T15:39:34.757Z,63.17
2022-12-08T15:42:10.091Z,81.13
2022-12-08T15:44:39.896Z,90.45
2022-12-08T15:47:15.979Z,88.40
2022-12-08T15:49:47.114Z,65.15
2022-12-08T15:52:19.726Z,69.40
2022-12-08T15:54:50.458Z,69.07
2022-12-08T15:58:04.026Z,70.53
2022-12-08T16:04:08.982Z,80.60
2022-12-08T16:09:13.593Z,58.33
2022-12-08T16:12:05.166Z,68.15
2022-12-08T16:15:39.152Z,64.18
2022-12-08T16:17:21.775Z,63.17
2022-12-08T16:19:49.425Z,68.80
2022-12-08T16:25:23.559Z,65.78
2022-12-08T16:28:12.455Z,57.92
2022-12-08T16:30:43.480Z,59.50
2022-12-08T16:33:12.639Z,60.28
2022-12-08T16:35:47.655Z,58.70
2022-12-08T16:38:19.824Z,55.25
2022-12-08T16:40:47.966Z,54.42
2022-12-08T16:43:15.734Z,57.03
2022-12-08T16:45:53.638Z,58.75
2022-12-08T16:48:21.331Z,62.17
2022-12-08T16:50:49.014Z,56.75
2022-12-08T16:53:16.904Z,55.60
2022-12-08T16:55:49.207Z,56.83
2022-12-08T17:09:35.674Z,68.45
2022-12-08T17:12:04.522Z,63.05
2022-12-08T17:14:42.730Z,60.78
2022-12-08T17:17:13.070Z,70.57
2022-12-08T17:19:41.460Z,60.47
2022-12-08T17:22:09.062Z,58.03
2022-12-08T17:24:41.554Z,61.50
2022-12-08T17:27:09.192Z,64.28
2022-12-08T17:29:37.829Z,66.35
2022-12-08T17:32:07.244Z,73.25
2022-12-08T17:34:37.096Z,80.60
2022-12-08T17:37:04.896Z,54.75
2022-12-08T17:39:33.091Z,58.00
2022-12-08T17:42:02.077Z,62.63
2022-12-08T17:44:30.052Z,75.40
2022-12-08T17:46:57.756Z,73.22
2022-12-08T17:49:26.955Z,68.97
2022-12-08T17:51:56.184Z,65.75
2022-12-08T17:54:24.419Z,68.82
2022-12-08T17:56:54.425Z,78.28
2022-12-08T17:59:29.415Z,75.13
2022-12-08T18:01:58.133Z,77.38
2022-12-08T18:04:26.786Z,88.60
2022-12-08T18:06:54.971Z,71.78
2022-12-08T18:09:34.302Z,79.93
2022-12-08T18:12:02.242Z,95.90
2022-12-08T18:14:35.753Z,80.15
2022-12-08T18:17:06.687Z,86.70
2022-12-08T18:19:36.303Z,89.68
2022-12-08T18:22:04.614Z,94.90
2022-12-08T18:24:32.238Z,100.35
2022-12-08T18:27:00.421Z,80.43
2022-12-08T18:29:28.888Z,88.25
2022-12-08T18:31:57.898Z,84.95
2022-12-08T18:34:25.691Z,96.93
2022-12-08T18:36:53.859Z,104.65
2022-12-08T18:39:24.147Z,112.90
2022-12-08T18:41:54.978Z,100.53
2022-12-08T18:44:24.048Z,98.45
2022-12-08T18:46:54.244Z,111.32
2022-12-08T18:49:23.235Z,90.07
2022-12-08T18:51:54.322Z,106.88
2022-12-08T18:54:27.711Z,91.53
2022-12-08T18:57:05.485Z,104.60
2022-12-08T18:59:36.329Z,97.75
2022-12-08T19:02:04.009Z,105.10
2022-12-08T19:04:39.059Z,103.13
2022-12-08T19:07:06.997Z,113.82
2022-12-08T19:09:36.178Z,102.90
2022-12-08T19:12:09.002Z,103.85
2022-12-08T19:14:40.150Z,109.93
2022-12-08T19:17:08.336Z,98.53
2022-12-08T19:19:40.225Z,104.03
2022-12-08T19:22:08.130Z,159.38
2022-12-08T19:24:36.073Z,140.73
2022-12-08T19:27:06.204Z,126.03
2022-12-08T19:29:36.579Z,114.40
2022-12-08T19:32:05.137Z,132.25
2022-12-08T19:34:37.053Z,114.43
2022-12-08T19:37:06.771Z,94.15
2022-12-08T19:39:39.314Z,108.03
2022-12-08T19:42:20.743Z,107.90
2022-12-08T19:44:51.017Z,120.97
2022-12-08T20:51:32.174Z,122.47
2022-12-08T20:54:00.952Z,118.32
2022-12-08T20:56:34.373Z,109.45
2022-12-08T20:59:02.434Z,108.25
2022-12-08T21:01:30.344Z,99.88
2022-12-08T21:04:07.366Z,111.20
2022-12-08T21:06:36.929Z,100.47
2022-12-08T21:09:04.874Z,115.35
2022-12-08T21:11:34.435Z,94.95
2022-12-08T21:14:04.515Z,99.88
2022-12-08T21:16:35.618Z,102.32
2022-12-08T21:19:08.705Z,130.23
2022-12-08T21:21:38.261Z,147.27
2022-12-08T21:24:11.522Z,92.05
2022-12-08T21:26:39.477Z,139.02
2022-12-08T21:29:10.886Z,152.63
2022-12-08T21:31:41.948Z,129.73
2022-12-08T21:34:13.094Z,176.13
2022-12-08T21:36:42.441Z,163.77
2022-12-08T21:39:10.292Z,144.55
2022-12-08T21:41:41.615Z,181.82
2022-12-08T21:44:11.288Z,142.60
2022-12-08T21:46:39.265Z,122.30
2022-12-08T21:49:08.409Z,134.23
2022-12-08T21:51:41.137Z,135.43
2022-12-08T21:54:16.684Z,129.70
2022-12-08T21:56:47.655Z,173.50
2022-12-08T21:59:18.146Z,131.90
2022-12-08T22:01:50.481Z,131.35
2022-12-08T22:04:24.089Z,127.05
2022-12-08T22:06:52.681Z,112.68
2022-12-08T22:09:22.254Z,139.63
2022-12-08T22:11:50.190Z,140.10
2022-12-08T22:14:20.432Z,142.20
2022-12-08T22:16:53.943Z,139.90
2022-12-08T22:19:21.877Z,147.43
2022-12-08T22:21:53.916Z,173.18
2022-12-08T22:24:24.128Z,154.88
2022-12-08T22:26:51.920Z,161.30
2022-12-08T22:29:23.749Z,174.45
2022-12-08T22:31:52.025Z,129.35
2022-12-08T22:34:20.105Z,121.55
2022-12-08T22:36:50.533Z,129.80
2022-12-08T22:39:18.423Z,124.85
2022-12-08T22:41:47.495Z,135.63
2022-12-08T22:44:15.639Z,145.02
2022-12-08T22:46:46.579Z,135.27
2022-12-08T22:49:14.189Z,108.30
2022-12-08T22:51:41.947Z,123.45
2022-12-08T22:54:10.742Z,135.27
2022-12-08T22:56:39.881Z,110.85
2022-12-08T22:59:08.933Z,131.25
2022-12-08T23:01:37.879Z,138.48
2022-12-08T23:11:34.311Z,122.65
2022-12-08T23:14:04.946Z,128.65
2022-12-08T23:16:34.216Z,114.85
2022-12-08T23:19:02.306Z,115.15
2022-12-08T23:21:33.195Z,101.68
2022-12-08T23:24:01.036Z,102.63
2022-12-08T23:26:30.651Z,108.30
2022-12-08T23:28:59.042Z,119.40
2022-12-08T23:31:27.834Z,104.40
2022-12-08T23:34:03.569Z,93.00
2022-12-08T23:36:35.754Z,96.28
2022-12-08T23:39:04.674Z,83.07
2022-12-08T23:41:34.210Z,90.85
2022-12-08T23:44:10.807Z,81.72
2022-12-08T23:46:39.145Z,95.60
2022-12-08T23:49:11.077Z,110.00
2022-12-08T23:51:41.940Z,99.40
2022-12-08T23:54:09.779Z,119.00
2022-12-08T23:56:37.415Z,95.15
2022-12-08T23:59:07.338Z,95.40
